sensor_id;sensor_type;location;lat;lon;timestamp;P1;durP1;ratioP1;P2;durP2;ratioP2
727;SDS011;347;48.780;9.158;2023-04-26T00:02:05;12.40;;;11.70;;
727;SDS011;347;48.780;9.158;2023-04-26T00:04:31;11.30;;;10.33;;
727;SDS011;347;48.780;9.158;2023-04-26T00:06:57;11.97;;;11.17;;
727;SDS011;347;48.780;9.158;2023-04-26T00:09:24;11.50;;;10.80;;
727;SDS011;347;48.780;9.158;2023-04-26T00:11:50;11.97;;;11.03;;
727;SDS011;347;48.780;9.158;2023-04-26T00:14:16;11.80;;;11.10;;
727;SDS011;347;48.780;9.158;2023-04-26T00:16:41;10.80;;;10.30;;
727;SDS011;347;48.780;9.158;2023-04-26T00:19:07;12.17;;;11.30;;
727;SDS011;347;48.780;9.158;2023-04-26T00:21:34;12.97;;;11.87;;
727;SDS011;347;48.780;9.158;2023-04-26T00:23:59;10.80;;;10.20;;
727;SDS011;347;48.780;9.158;2023-04-26T00:26:25;11.47;;;10.83;;
727;SDS011;347;48.780;9.158;2023-04-26T00:28:50;10.43;;;9.83;;
727;SDS011;347;48.780;9.158;2023-04-26T00:31:16;11.43;;;10.73;;
727;SDS011;347;48.780;9.158;2023-04-26T00:33:42;10.60;;;10.00;;
727;SDS011;347;48.780;9.158;2023-04-26T00:36:08;11.60;;;10.80;;
727;SDS011;347;48.780;9.158;2023-04-26T00:38:34;10.50;;;10.00;;
727;SDS011;347;48.780;9.158;2023-04-26T00:41:00;11.80;;;11.00;;
727;SDS011;347;48.780;9.158;2023-04-26T00:43:26;11.57;;;10.97;;
727;SDS011;347;48.780;9.158;2023-04-26T00:45:52;11.10;;;10.50;;
727;SDS011;347;48.780;9.158;2023-04-26T00:48:18;10.50;;;9.80;;
727;SDS011;347;48.780;9.158;2023-04-26T00:50:44;10.27;;;9.67;;
727;SDS011;347;48.780;9.158;2023-04-26T00:53:11;11.20;;;10.57;;
727;SDS011;347;48.780;9.158;2023-04-26T00:55:39;11.90;;;11.00;;
727;SDS011;347;48.780;9.158;2023-04-26T00:58:05;11.00;;;10.40;;
727;SDS011;347;48.780;9.158;2023-04-26T01:00:31;11.07;;;10.10;;
727;SDS011;347;48.780;9.158;2023-04-26T01:02:57;10.87;;;10.27;;
727;SDS011;347;48.780;9.158;2023-04-26T01:05:23;11.60;;;10.77;;
727;SDS011;347;48.780;9.158;2023-04-26T01:07:48;11.67;;;10.73;;
727;SDS011;347;48.780;9.158;2023-04-26T01:10:15;10.87;;;10.27;;
727;SDS011;347;48.780;9.158;2023-04-26T01:12:41;11.23;;;10.53;;
727;SDS011;347;48.780;9.158;2023-04-26T01:15:07;10.90;;;10.20;;
727;SDS011;347;48.780;9.158;2023-04-26T01:17:34;11.07;;;10.27;;
727;SDS011;347;48.780;9.158;2023-04-26T01:20:01;10.70;;;9.97;;
727;SDS011;347;48.780;9.158;2023-04-26T01:22:31;10.80;;;10.10;;
727;SDS011;347;48.780;9.158;2023-04-26T01:24:57;10.90;;;10.00;;
727;SDS011;347;48.780;9.158;2023-04-26T01:27:25;11.53;;;10.83;;
727;SDS011;347;48.780;9.158;2023-04-26T01:29:51;11.43;;;10.63;;
727;SDS011;347;48.780;9.158;2023-04-26T01:32:17;11.73;;;10.83;;
727;SDS011;347;48.780;9.158;2023-04-26T01:34:42;10.90;;;10.30;;
727;SDS011;347;48.780;9.158;2023-04-26T01:37:08;10.33;;;9.57;;
727;SDS011;347;48.780;9.158;2023-04-26T01:39:34;10.80;;;9.93;;
727;SDS011;347;48.780;9.158;2023-04-26T01:42:00;10.77;;;10.07;;
727;SDS011;347;48.780;9.158;2023-04-26T01:44:28;10.77;;;9.97;;
727;SDS011;347;48.780;9.158;2023-04-26T01:46:54;11.90;;;11.10;;
727;SDS011;347;48.780;9.158;2023-04-26T01:49:20;10.60;;;10.07;;
727;SDS011;347;48.780;9.158;2023-04-26T01:51:46;10.07;;;9.30;;
727;SDS011;347;48.780;9.158;2023-04-26T01:54:11;11.13;;;10.53;;
727;SDS011;347;48.780;9.158;2023-04-26T01:56:37;10.40;;;9.80;;
727;SDS011;347;48.780;9.158;2023-04-26T01:59:02;10.80;;;10.20;;
727;SDS011;347;48.780;9.158;2023-04-26T02:01:28;10.53;;;10.00;;
727;SDS011;347;48.780;9.158;2023-04-26T02:03:54;11.20;;;10.50;;
727;SDS011;347;48.780;9.158;2023-04-26T02:06:19;10.97;;;10.17;;
727;SDS011;347;48.780;9.158;2023-04-26T02:08:45;11.20;;;10.60;;
727;SDS011;347;48.780;9.158;2023-04-26T02:11:11;12.37;;;11.33;;
727;SDS011;347;48.780;9.158;2023-04-26T02:13:37;11.63;;;10.83;;
727;SDS011;347;48.780;9.158;2023-04-26T02:16:03;12.07;;;11.47;;
727;SDS011;347;48.780;9.158;2023-04-26T02:18:29;10.73;;;10.00;;
727;SDS011;347;48.780;9.158;2023-04-26T02:20:54;11.60;;;10.90;;
727;SDS011;347;48.780;9.158;2023-04-26T02:23:20;12.07;;;11.37;;
727;SDS011;347;48.780;9.158;2023-04-26T02:25:46;12.60;;;11.70;;
727;SDS011;347;48.780;9.158;2023-04-26T02:28:12;11.33;;;10.67;;
727;SDS011;347;48.780;9.158;2023-04-26T02:30:40;11.83;;;10.90;;
727;SDS011;347;48.780;9.158;2023-04-26T02:33:06;12.60;;;11.90;;
727;SDS011;347;48.780;9.158;2023-04-26T02:35:33;12.27;;;11.53;;
727;SDS011;347;48.780;9.158;2023-04-26T02:38:00;13.30;;;12.40;;
727;SDS011;347;48.780;9.158;2023-04-26T02:40:25;12.50;;;11.70;;
727;SDS011;347;48.780;9.158;2023-04-26T02:42:51;13.27;;;12.47;;
727;SDS011;347;48.780;9.158;2023-04-26T02:45:17;13.97;;;13.07;;
727;SDS011;347;48.780;9.158;2023-04-26T02:47:42;15.20;;;14.20;;
727;SDS011;347;48.780;9.158;2023-04-26T02:50:08;14.80;;;13.80;;
727;SDS011;347;48.780;9.158;2023-04-26T02:52:35;15.60;;;14.50;;
727;SDS011;347;48.780;9.158;2023-04-26T02:55:01;16.23;;;15.23;;
727;SDS011;347;48.780;9.158;2023-04-26T02:57:28;15.90;;;14.70;;
727;SDS011;347;48.780;9.158;2023-04-26T02:59:55;16.47;;;15.47;;
727;SDS011;347;48.780;9.158;2023-04-26T03:02:21;15.73;;;14.63;;
727;SDS011;347;48.780;9.158;2023-04-26T03:04:46;15.43;;;14.53;;
727;SDS011;347;48.780;9.158;2023-04-26T03:07:12;17.90;;;16.63;;
727;SDS011;347;48.780;9.158;2023-04-26T03:09:38;18.73;;;17.13;;
727;SDS011;347;48.780;9.158;2023-04-26T03:12:05;17.80;;;16.60;;
727;SDS011;347;48.780;9.158;2023-04-26T03:14:31;17.43;;;16.13;;
727;SDS011;347;48.780;9.158;2023-04-26T03:16:57;18.47;;;17.07;;
727;SDS011;347;48.780;9.158;2023-04-26T03:19:23;17.30;;;16.10;;
727;SDS011;347;48.780;9.158;2023-04-26T03:21:49;16.47;;;15.27;;
727;SDS011;347;48.780;9.158;2023-04-26T03:24:15;18.50;;;16.90;;
727;SDS011;347;48.780;9.158;2023-04-26T03:26:41;16.30;;;15.23;;
727;SDS011;347;48.780;9.158;2023-04-26T03:29:07;18.73;;;16.87;;
727;SDS011;347;48.780;9.158;2023-04-26T03:31:32;19.03;;;17.70;;
727;SDS011;347;48.780;9.158;2023-04-26T03:33:58;17.67;;;16.57;;
727;SDS011;347;48.780;9.158;2023-04-26T03:36:23;17.40;;;16.20;;
727;SDS011;347;48.780;9.158;2023-04-26T03:38:49;18.10;;;16.57;;
727;SDS011;347;48.780;9.158;2023-04-26T03:41:15;18.13;;;16.93;;
727;SDS011;347;48.780;9.158;2023-04-26T03:43:41;16.93;;;16.00;;
727;SDS011;347;48.780;9.158;2023-04-26T03:46:07;16.77;;;15.73;;
727;SDS011;347;48.780;9.158;2023-04-26T03:48:32;16.90;;;15.70;;
727;SDS011;347;48.780;9.158;2023-04-26T03:50:58;17.13;;;15.87;;
727;SDS011;347;48.780;9.158;2023-04-26T03:53:23;16.90;;;15.90;;
727;SDS011;347;48.780;9.158;2023-04-26T03:55:49;16.37;;;15.30;;
727;SDS011;347;48.780;9.158;2023-04-26T03:58:15;16.33;;;15.23;;
727;SDS011;347;48.780;9.158;2023-04-26T04:00:40;14.87;;;13.90;;
727;SDS011;347;48.780;9.158;2023-04-26T04:03:08;16.37;;;15.17;;
727;SDS011;347;48.780;9.158;2023-04-26T04:05:34;14.47;;;13.30;;
727;SDS011;347;48.780;9.158;2023-04-26T04:08:00;16.63;;;15.33;;
727;SDS011;347;48.780;9.158;2023-04-26T04:10:26;15.53;;;14.60;;
727;SDS011;347;48.780;9.158;2023-04-26T04:12:51;17.20;;;16.20;;
727;SDS011;347;48.780;9.158;2023-04-26T04:15:18;15.93;;;14.93;;
727;SDS011;347;48.780;9.158;2023-04-26T04:17:44;15.40;;;14.40;;
727;SDS011;347;48.780;9.158;2023-04-26T04:20:10;16.37;;;15.13;;
727;SDS011;347;48.780;9.158;2023-04-26T04:22:36;16.60;;;15.50;;
727;SDS011;347;48.780;9.158;2023-04-26T04:25:06;18.47;;;17.27;;
727;SDS011;347;48.780;9.158;2023-04-26T04:27:33;17.67;;;16.67;;
727;SDS011;347;48.780;9.158;2023-04-26T04:29:58;16.73;;;15.47;;
727;SDS011;347;48.780;9.158;2023-04-26T04:32:27;15.87;;;14.73;;
727;SDS011;347;48.780;9.158;2023-04-26T04:34:53;17.57;;;16.00;;
727;SDS011;347;48.780;9.158;2023-04-26T04:37:19;17.37;;;15.83;;
727;SDS011;347;48.780;9.158;2023-04-26T04:39:45;18.23;;;16.93;;
727;SDS011;347;48.780;9.158;2023-04-26T04:42:10;18.47;;;16.97;;
727;SDS011;347;48.780;9.158;2023-04-26T04:44:36;17.77;;;16.37;;
727;SDS011;347;48.780;9.158;2023-04-26T04:47:02;18.03;;;16.43;;
727;SDS011;347;48.780;9.158;2023-04-26T04:49:28;16.77;;;15.57;;
727;SDS011;347;48.780;9.158;2023-04-26T04:51:55;17.70;;;16.47;;
727;SDS011;347;48.780;9.158;2023-04-26T04:54:21;17.90;;;16.80;;
727;SDS011;347;48.780;9.158;2023-04-26T04:56:47;16.00;;;15.00;;
727;SDS011;347;48.780;9.158;2023-04-26T04:59:12;16.60;;;15.60;;
727;SDS011;347;48.780;9.158;2023-04-26T05:01:38;16.30;;;15.00;;
727;SDS011;347;48.780;9.158;2023-04-26T05:04:04;16.50;;;15.30;;
727;SDS011;347;48.780;9.158;2023-04-26T05:06:31;17.00;;;15.67;;
727;SDS011;347;48.780;9.158;2023-04-26T05:08:57;19.33;;;18.10;;
727;SDS011;347;48.780;9.158;2023-04-26T05:11:23;16.00;;;15.00;;
727;SDS011;347;48.780;9.158;2023-04-26T05:13:48;16.57;;;15.37;;
727;SDS011;347;48.780;9.158;2023-04-26T05:16:14;19.33;;;17.93;;
727;SDS011;347;48.780;9.158;2023-04-26T05:18:40;17.10;;;16.00;;
727;SDS011;347;48.780;9.158;2023-04-26T05:21:06;17.93;;;16.60;;
727;SDS011;347;48.780;9.158;2023-04-26T05:23:32;18.00;;;16.73;;
727;SDS011;347;48.780;9.158;2023-04-26T05:26:04;17.40;;;16.30;;
727;SDS011;347;48.780;9.158;2023-04-26T05:28:31;18.23;;;17.00;;
727;SDS011;347;48.780;9.158;2023-04-26T05:30:57;18.20;;;17.10;;
727;SDS011;347;48.780;9.158;2023-04-26T05:33:23;17.50;;;16.40;;
727;SDS011;347;48.780;9.158;2023-04-26T05:35:49;18.33;;;17.10;;
727;SDS011;347;48.780;9.158;2023-04-26T05:38:16;16.50;;;15.30;;
727;SDS011;347;48.780;9.158;2023-04-26T05:40:42;19.73;;;18.33;;
727;SDS011;347;48.780;9.158;2023-04-26T05:43:07;18.80;;;17.50;;
727;SDS011;347;48.780;9.158;2023-04-26T05:45:33;19.47;;;18.07;;
727;SDS011;347;48.780;9.158;2023-04-26T05:47:58;20.97;;;19.43;;
727;SDS011;347;48.780;9.158;2023-04-26T05:50:24;17.97;;;16.70;;
727;SDS011;347;48.780;9.158;2023-04-26T05:52:50;17.13;;;16.00;;
727;SDS011;347;48.780;9.158;2023-04-26T05:55:16;18.63;;;17.33;;
727;SDS011;347;48.780;9.158;2023-04-26T05:57:41;18.80;;;17.50;;
727;SDS011;347;48.780;9.158;2023-04-26T06:00:07;19.07;;;17.67;;
727;SDS011;347;48.780;9.158;2023-04-26T06:02:33;19.20;;;17.60;;
727;SDS011;347;48.780;9.158;2023-04-26T06:04:59;19.00;;;17.60;;
727;SDS011;347;48.780;9.158;2023-04-26T06:07:25;17.67;;;16.57;;
727;SDS011;347;48.780;9.158;2023-04-26T06:09:51;18.20;;;16.90;;
727;SDS011;347;48.780;9.158;2023-04-26T06:12:16;19.90;;;18.40;;
727;SDS011;347;48.780;9.158;2023-04-26T06:14:42;18.50;;;16.93;;
727;SDS011;347;48.780;9.158;2023-04-26T06:17:08;16.97;;;15.70;;
727;SDS011;347;48.780;9.158;2023-04-26T06:19:33;17.07;;;15.70;;
727;SDS011;347;48.780;9.158;2023-04-26T06:21:59;16.73;;;15.40;;
727;SDS011;347;48.780;9.158;2023-04-26T06:24:25;16.37;;;15.07;;
727;SDS011;347;48.780;9.158;2023-04-26T06:26:50;17.40;;;16.20;;
727;SDS011;347;48.780;9.158;2023-04-26T06:29:16;16.00;;;14.73;;
727;SDS011;347;48.780;9.158;2023-04-26T06:31:42;16.13;;;14.83;;
727;SDS011;347;48.780;9.158;2023-04-26T06:34:07;17.07;;;15.77;;
727;SDS011;347;48.780;9.158;2023-04-26T06:36:33;16.63;;;15.23;;
727;SDS011;347;48.780;9.158;2023-04-26T06:38:58;17.80;;;16.57;;
727;SDS011;347;48.780;9.158;2023-04-26T06:41:24;16.23;;;15.13;;
727;SDS011;347;48.780;9.158;2023-04-26T06:43:50;16.57;;;15.47;;
727;SDS011;347;48.780;9.158;2023-04-26T06:46:15;16.17;;;15.07;;
727;SDS011;347;48.780;9.158;2023-04-26T06:48:41;16.33;;;15.23;;
727;SDS011;347;48.780;9.158;2023-04-26T06:51:07;16.90;;;15.73;;
727;SDS011;347;48.780;9.158;2023-04-26T06:53:33;15.83;;;14.63;;
727;SDS011;347;48.780;9.158;2023-04-26T06:56:02;16.10;;;14.73;;
727;SDS011;347;48.780;9.158;2023-04-26T06:58:28;14.00;;;13.20;;
727;SDS011;347;48.780;9.158;2023-04-26T07:00:53;12.73;;;11.83;;
727;SDS011;347;48.780;9.158;2023-04-26T07:03:19;12.30;;;11.57;;
727;SDS011;347;48.780;9.158;2023-04-26T07:05:44;12.20;;;11.43;;
727;SDS011;347;48.780;9.158;2023-04-26T07:08:10;11.90;;;11.10;;
727;SDS011;347;48.780;9.158;2023-04-26T07:10:37;13.23;;;12.33;;
727;SDS011;347;48.780;9.158;2023-04-26T07:13:03;11.03;;;10.30;;
727;SDS011;347;48.780;9.158;2023-04-26T07:15:29;12.80;;;11.60;;
727;SDS011;347;48.780;9.158;2023-04-26T07:17:56;14.77;;;13.77;;
727;SDS011;347;48.780;9.158;2023-04-26T07:20:21;14.37;;;13.37;;
727;SDS011;347;48.780;9.158;2023-04-26T07:22:48;14.03;;;13.20;;
727;SDS011;347;48.780;9.158;2023-04-26T07:25:14;12.80;;;11.90;;
727;SDS011;347;48.780;9.158;2023-04-26T07:27:40;14.40;;;13.23;;
727;SDS011;347;48.780;9.158;2023-04-26T07:30:07;14.43;;;13.33;;
727;SDS011;347;48.780;9.158;2023-04-26T07:32:34;13.13;;;12.33;;
727;SDS011;347;48.780;9.158;2023-04-26T07:35:00;12.83;;;12.03;;
727;SDS011;347;48.780;9.158;2023-04-26T07:37:28;13.83;;;13.03;;
727;SDS011;347;48.780;9.158;2023-04-26T07:39:54;13.20;;;12.20;;
727;SDS011;347;48.780;9.158;2023-04-26T07:42:19;12.17;;;11.03;;
727;SDS011;347;48.780;9.158;2023-04-26T07:44:46;13.27;;;12.37;;
727;SDS011;347;48.780;9.158;2023-04-26T07:47:12;14.13;;;12.80;;
727;SDS011;347;48.780;9.158;2023-04-26T07:49:38;13.10;;;12.23;;
727;SDS011;347;48.780;9.158;2023-04-26T07:52:04;13.43;;;12.50;;
727;SDS011;347;48.780;9.158;2023-04-26T07:54:29;12.97;;;12.00;;
727;SDS011;347;48.780;9.158;2023-04-26T07:56:55;14.67;;;13.67;;
727;SDS011;347;48.780;9.158;2023-04-26T07:59:21;13.97;;;13.07;;
727;SDS011;347;48.780;9.158;2023-04-26T08:01:48;13.60;;;12.67;;
727;SDS011;347;48.780;9.158;2023-04-26T08:04:14;15.57;;;14.33;;
727;SDS011;347;48.780;9.158;2023-04-26T08:06:40;14.23;;;13.23;;
727;SDS011;347;48.780;9.158;2023-04-26T08:09:09;13.90;;;13.10;;
727;SDS011;347;48.780;9.158;2023-04-26T08:11:35;12.63;;;11.80;;
727;SDS011;347;48.780;9.158;2023-04-26T08:14:01;13.23;;;12.23;;
727;SDS011;347;48.780;9.158;2023-04-26T08:16:26;14.67;;;13.60;;
727;SDS011;347;48.780;9.158;2023-04-26T08:18:52;14.97;;;13.87;;
727;SDS011;347;48.780;9.158;2023-04-26T08:21:18;14.00;;;13.00;;
727;SDS011;347;48.780;9.158;2023-04-26T08:23:44;13.97;;;13.10;;
727;SDS011;347;48.780;9.158;2023-04-26T08:26:10;13.90;;;12.90;;
727;SDS011;347;48.780;9.158;2023-04-26T08:28:36;14.10;;;13.10;;
727;SDS011;347;48.780;9.158;2023-04-26T08:31:02;14.13;;;12.77;;
727;SDS011;347;48.780;9.158;2023-04-26T08:33:28;12.43;;;11.67;;
727;SDS011;347;48.780;9.158;2023-04-26T08:35:54;15.37;;;14.20;;
727;SDS011;347;48.780;9.158;2023-04-26T08:38:19;15.17;;;14.17;;
727;SDS011;347;48.780;9.158;2023-04-26T08:40:46;13.10;;;12.40;;
727;SDS011;347;48.780;9.158;2023-04-26T08:43:12;14.13;;;13.10;;
727;SDS011;347;48.780;9.158;2023-04-26T08:45:39;14.03;;;13.20;;
727;SDS011;347;48.780;9.158;2023-04-26T08:48:07;13.30;;;12.30;;
727;SDS011;347;48.780;9.158;2023-04-26T08:50:38;14.07;;;13.17;;
727;SDS011;347;48.780;9.158;2023-04-26T08:53:07;12.57;;;11.67;;
727;SDS011;347;48.780;9.158;2023-04-26T08:55:33;13.23;;;12.17;;
727;SDS011;347;48.780;9.158;2023-04-26T08:58:00;12.93;;;12.03;;
727;SDS011;347;48.780;9.158;2023-04-26T09:00:26;13.40;;;12.30;;
727;SDS011;347;48.780;9.158;2023-04-26T09:02:52;13.43;;;12.47;;
727;SDS011;347;48.780;9.158;2023-04-26T09:05:18;12.90;;;12.10;;
727;SDS011;347;48.780;9.158;2023-04-26T09:07:53;13.00;;;11.90;;
727;SDS011;347;48.780;9.158;2023-04-26T09:10:24;12.03;;;11.33;;
727;SDS011;347;48.780;9.158;2023-04-26T09:12:51;14.03;;;13.13;;
727;SDS011;347;48.780;9.158;2023-04-26T09:15:17;12.87;;;11.90;;
727;SDS011;347;48.780;9.158;2023-04-26T09:17:44;12.53;;;11.63;;
727;SDS011;347;48.780;9.158;2023-04-26T09:23:05;12.87;;;11.87;;
727;SDS011;347;48.780;9.158;2023-04-26T09:25:32;12.97;;;11.97;;
727;SDS011;347;48.780;9.158;2023-04-26T09:27:58;13.40;;;12.60;;
727;SDS011;347;48.780;9.158;2023-04-26T09:30:25;13.77;;;12.87;;
727;SDS011;347;48.780;9.158;2023-04-26T09:32:56;14.07;;;13.13;;
727;SDS011;347;48.780;9.158;2023-04-26T09:38:00;14.10;;;13.10;;
727;SDS011;347;48.780;9.158;2023-04-26T09:40:43;13.93;;;12.80;;
727;SDS011;347;48.780;9.158;2023-04-26T09:43:15;13.93;;;13.13;;
727;SDS011;347;48.780;9.158;2023-04-26T09:45:55;12.60;;;11.80;;
727;SDS011;347;48.780;9.158;2023-04-26T09:48:23;11.93;;;11.13;;
727;SDS011;347;48.780;9.158;2023-04-26T09:50:51;13.00;;;12.00;;
727;SDS011;347;48.780;9.158;2023-04-26T09:53:35;11.90;;;11.10;;
727;SDS011;347;48.780;9.158;2023-04-26T09:58:36;12.73;;;11.60;;
727;SDS011;347;48.780;9.158;2023-04-26T10:01:03;13.17;;;12.07;;
727;SDS011;347;48.780;9.158;2023-04-26T10:03:33;13.90;;;12.80;;
727;SDS011;347;48.780;9.158;2023-04-26T10:05:59;13.37;;;12.47;;
727;SDS011;347;48.780;9.158;2023-04-26T10:08:25;13.30;;;12.50;;
727;SDS011;347;48.780;9.158;2023-04-26T10:10:50;13.67;;;12.73;;
727;SDS011;347;48.780;9.158;2023-04-26T10:13:17;12.23;;;11.40;;
727;SDS011;347;48.780;9.158;2023-04-26T10:15:43;13.33;;;12.10;;
727;SDS011;347;48.780;9.158;2023-04-26T10:18:09;13.57;;;12.60;;
727;SDS011;347;48.780;9.158;2023-04-26T10:20:38;15.17;;;13.70;;
727;SDS011;347;48.780;9.158;2023-04-26T10:23:05;14.10;;;13.00;;
727;SDS011;347;48.780;9.158;2023-04-26T10:25:40;14.70;;;13.20;;
727;SDS011;347;48.780;9.158;2023-04-26T10:28:06;14.00;;;13.00;;
727;SDS011;347;48.780;9.158;2023-04-26T10:30:32;12.37;;;11.50;;
727;SDS011;347;48.780;9.158;2023-04-26T10:33:22;13.00;;;12.10;;
727;SDS011;347;48.780;9.158;2023-04-26T10:36:08;13.07;;;12.17;;
727;SDS011;347;48.780;9.158;2023-04-26T10:38:36;12.93;;;12.00;;
727;SDS011;347;48.780;9.158;2023-04-26T10:43:59;12.63;;;11.87;;
727;SDS011;347;48.780;9.158;2023-04-26T10:46:48;12.90;;;12.10;;
727;SDS011;347;48.780;9.158;2023-04-26T10:49:16;12.80;;;12.00;;
727;SDS011;347;48.780;9.158;2023-04-26T10:57:17;12.33;;;11.63;;
727;SDS011;347;48.780;9.158;2023-04-26T11:02:54;12.03;;;11.40;;
727;SDS011;347;48.780;9.158;2023-04-26T11:05:40;13.33;;;11.97;;
727;SDS011;347;48.780;9.158;2023-04-26T11:08:16;12.60;;;11.97;;
727;SDS011;347;48.780;9.158;2023-04-26T11:10:56;13.10;;;12.30;;
727;SDS011;347;48.780;9.158;2023-04-26T11:13:23;12.97;;;12.17;;
727;SDS011;347;48.780;9.158;2023-04-26T11:15:59;12.90;;;12.00;;
727;SDS011;347;48.780;9.158;2023-04-26T11:18:29;13.17;;;12.27;;
727;SDS011;347;48.780;9.158;2023-04-26T11:20:56;12.33;;;11.50;;
727;SDS011;347;48.780;9.158;2023-04-26T11:23:22;13.40;;;12.40;;
727;SDS011;347;48.780;9.158;2023-04-26T11:25:49;13.17;;;12.40;;
727;SDS011;347;48.780;9.158;2023-04-26T11:28:14;12.20;;;11.40;;
727;SDS011;347;48.780;9.158;2023-04-26T11:30:40;11.33;;;10.70;;
727;SDS011;347;48.780;9.158;2023-04-26T11:33:07;13.23;;;12.43;;
727;SDS011;347;48.780;9.158;2023-04-26T11:36:02;12.40;;;11.70;;
727;SDS011;347;48.780;9.158;2023-04-26T11:38:28;12.07;;;11.40;;
727;SDS011;347;48.780;9.158;2023-04-26T11:40:55;12.83;;;12.13;;
727;SDS011;347;48.780;9.158;2023-04-26T11:43:21;12.60;;;11.70;;
727;SDS011;347;48.780;9.158;2023-04-26T11:45:46;12.43;;;11.73;;
727;SDS011;347;48.780;9.158;2023-04-26T11:48:12;14.77;;;13.47;;
727;SDS011;347;48.780;9.158;2023-04-26T11:50:39;12.53;;;11.67;;
727;SDS011;347;48.780;9.158;2023-04-26T11:53:06;13.07;;;12.30;;
727;SDS011;347;48.780;9.158;2023-04-26T11:55:33;12.77;;;11.93;;
727;SDS011;347;48.780;9.158;2023-04-26T11:58:00;14.07;;;13.17;;
727;SDS011;347;48.780;9.158;2023-04-26T12:00:33;12.60;;;11.50;;
727;SDS011;347;48.780;9.158;2023-04-26T12:03:03;12.17;;;11.47;;
727;SDS011;347;48.780;9.158;2023-04-26T12:05:31;13.20;;;12.47;;
727;SDS011;347;48.780;9.158;2023-04-26T12:07:57;12.23;;;11.50;;
727;SDS011;347;48.780;9.158;2023-04-26T12:10:28;11.80;;;10.90;;
727;SDS011;347;48.780;9.158;2023-04-26T12:12:57;13.27;;;12.30;;
727;SDS011;347;48.780;9.158;2023-04-26T12:15:24;13.70;;;12.93;;
727;SDS011;347;48.780;9.158;2023-04-26T12:17:55;12.73;;;12.03;;
727;SDS011;347;48.780;9.158;2023-04-26T12:20:33;11.83;;;10.97;;
727;SDS011;347;48.780;9.158;2023-04-26T12:23:04;12.00;;;11.27;;
727;SDS011;347;48.780;9.158;2023-04-26T12:25:40;12.43;;;11.43;;
727;SDS011;347;48.780;9.158;2023-04-26T12:28:16;12.13;;;11.53;;
727;SDS011;347;48.780;9.158;2023-04-26T12:30:42;13.03;;;12.13;;
727;SDS011;347;48.780;9.158;2023-04-26T12:33:07;12.00;;;11.30;;
727;SDS011;347;48.780;9.158;2023-04-26T12:35:33;12.03;;;11.30;;
727;SDS011;347;48.780;9.158;2023-04-26T12:37:59;12.50;;;11.70;;
727;SDS011;347;48.780;9.158;2023-04-26T12:40:28;12.53;;;11.60;;
727;SDS011;347;48.780;9.158;2023-04-26T12:42:55;13.30;;;11.90;;
727;SDS011;347;48.780;9.158;2023-04-26T12:45:21;11.63;;;11.03;;
727;SDS011;347;48.780;9.158;2023-04-26T12:47:49;12.30;;;11.27;;
727;SDS011;347;48.780;9.158;2023-04-26T12:50:15;12.47;;;11.77;;
727;SDS011;347;48.780;9.158;2023-04-26T12:52:42;12.10;;;11.30;;
727;SDS011;347;48.780;9.158;2023-04-26T12:55:09;11.57;;;10.83;;
727;SDS011;347;48.780;9.158;2023-04-26T12:57:36;13.07;;;11.90;;
727;SDS011;347;48.780;9.158;2023-04-26T13:00:03;11.80;;;11.20;;
727;SDS011;347;48.780;9.158;2023-04-26T13:02:30;12.27;;;11.27;;
727;SDS011;347;48.780;9.158;2023-04-26T13:04:56;12.10;;;11.40;;
727;SDS011;347;48.780;9.158;2023-04-26T13:07:22;13.17;;;12.00;;
727;SDS011;347;48.780;9.158;2023-04-26T13:09:48;11.70;;;11.10;;
727;SDS011;347;48.780;9.158;2023-04-26T13:12:14;12.87;;;11.80;;
727;SDS011;347;48.780;9.158;2023-04-26T13:14:40;11.83;;;11.03;;
727;SDS011;347;48.780;9.158;2023-04-26T13:17:05;13.90;;;13.10;;
727;SDS011;347;48.780;9.158;2023-04-26T13:19:33;12.23;;;11.63;;
727;SDS011;347;48.780;9.158;2023-04-26T13:22:01;12.30;;;11.60;;
727;SDS011;347;48.780;9.158;2023-04-26T13:24:28;11.60;;;11.00;;
727;SDS011;347;48.780;9.158;2023-04-26T13:26:54;12.20;;;11.30;;
727;SDS011;347;48.780;9.158;2023-04-26T13:29:20;11.33;;;10.73;;
727;SDS011;347;48.780;9.158;2023-04-26T13:31:46;11.70;;;10.80;;
727;SDS011;347;48.780;9.158;2023-04-26T13:34:11;12.10;;;11.30;;
727;SDS011;347;48.780;9.158;2023-04-26T13:36:38;11.67;;;11.07;;
727;SDS011;347;48.780;9.158;2023-04-26T13:39:04;12.43;;;11.83;;
727;SDS011;347;48.780;9.158;2023-04-26T13:41:31;11.00;;;10.50;;
727;SDS011;347;48.780;9.158;2023-04-26T13:43:59;10.70;;;10.00;;
727;SDS011;347;48.780;9.158;2023-04-26T13:46:26;11.63;;;10.67;;
727;SDS011;347;48.780;9.158;2023-04-26T13:48:52;11.60;;;11.00;;
727;SDS011;347;48.780;9.158;2023-04-26T13:51:17;12.00;;;11.30;;
727;SDS011;347;48.780;9.158;2023-04-26T13:53:43;11.10;;;10.50;;
727;SDS011;347;48.780;9.158;2023-04-26T13:56:09;11.50;;;10.70;;
727;SDS011;347;48.780;9.158;2023-04-26T13:58:34;11.40;;;10.70;;
727;SDS011;347;48.780;9.158;2023-04-26T14:01:01;11.03;;;10.47;;
727;SDS011;347;48.780;9.158;2023-04-26T14:03:27;11.70;;;11.20;;
727;SDS011;347;48.780;9.158;2023-04-26T14:05:53;11.80;;;11.00;;
727;SDS011;347;48.780;9.158;2023-04-26T14:08:18;12.20;;;11.50;;
727;SDS011;347;48.780;9.158;2023-04-26T14:10:45;12.30;;;11.40;;
727;SDS011;347;48.780;9.158;2023-04-26T14:13:10;11.73;;;10.77;;
727;SDS011;347;48.780;9.158;2023-04-26T14:15:36;13.00;;;12.20;;
727;SDS011;347;48.780;9.158;2023-04-26T14:18:01;12.20;;;11.30;;
727;SDS011;347;48.780;9.158;2023-04-26T14:20:27;11.50;;;10.90;;
727;SDS011;347;48.780;9.158;2023-04-26T14:22:53;11.60;;;11.10;;
727;SDS011;347;48.780;9.158;2023-04-26T14:25:18;11.50;;;10.90;;
727;SDS011;347;48.780;9.158;2023-04-26T14:27:44;11.80;;;10.90;;
727;SDS011;347;48.780;9.158;2023-04-26T14:30:10;12.40;;;11.60;;
727;SDS011;347;48.780;9.158;2023-04-26T14:32:35;10.77;;;10.07;;
727;SDS011;347;48.780;9.158;2023-04-26T14:35:01;12.33;;;11.57;;
727;SDS011;347;48.780;9.158;2023-04-26T14:37:27;13.10;;;12.20;;
727;SDS011;347;48.780;9.158;2023-04-26T14:39:52;11.67;;;11.07;;
727;SDS011;347;48.780;9.158;2023-04-26T14:42:18;11.97;;;11.07;;
727;SDS011;347;48.780;9.158;2023-04-26T14:44:44;12.00;;;11.20;;
727;SDS011;347;48.780;9.158;2023-04-26T14:47:10;12.20;;;11.50;;
727;SDS011;347;48.780;9.158;2023-04-26T14:49:36;11.77;;;11.07;;
727;SDS011;347;48.780;9.158;2023-04-26T14:52:01;11.43;;;10.60;;
727;SDS011;347;48.780;9.158;2023-04-26T14:54:28;11.00;;;10.30;;
727;SDS011;347;48.780;9.158;2023-04-26T14:56:53;11.23;;;10.30;;
727;SDS011;347;48.780;9.158;2023-04-26T14:59:19;10.70;;;10.07;;
727;SDS011;347;48.780;9.158;2023-04-26T15:01:45;11.03;;;10.20;;
727;SDS011;347;48.780;9.158;2023-04-26T15:04:11;11.00;;;10.20;;
727;SDS011;347;48.780;9.158;2023-04-26T15:06:36;11.43;;;10.90;;
727;SDS011;347;48.780;9.158;2023-04-26T15:09:02;11.30;;;10.60;;
727;SDS011;347;48.780;9.158;2023-04-26T15:11:31;11.00;;;10.30;;
727;SDS011;347;48.780;9.158;2023-04-26T15:13:57;11.20;;;10.50;;
727;SDS011;347;48.780;9.158;2023-04-26T15:16:23;11.03;;;10.40;;
727;SDS011;347;48.780;9.158;2023-04-26T15:18:48;10.90;;;10.30;;
727;SDS011;347;48.780;9.158;2023-04-26T15:21:15;10.73;;;10.03;;
727;SDS011;347;48.780;9.158;2023-04-26T15:23:41;11.03;;;10.50;;
727;SDS011;347;48.780;9.158;2023-04-26T15:26:07;11.80;;;11.07;;
727;SDS011;347;48.780;9.158;2023-04-26T15:28:33;12.10;;;11.10;;
727;SDS011;347;48.780;9.158;2023-04-26T15:31:02;12.07;;;11.27;;
727;SDS011;347;48.780;9.158;2023-04-26T15:33:32;10.83;;;10.23;;